Terminal Aerodrome Forecast
Issued by NWS

Home | Current Version | Previous Version | Text Only | Print | Product List | Glossary Off
Versions: 1 2 3 4 5 6 7 8 9 10 11 12 13 14 15 16 17 18 19 20

000
FTUS43 KGRB 141000 AAA
TAFRHI
TAF AMD
KRHI 141015Z 1410/1506 34012G22KT 1 1/2SM -SN BR OVC010
      TEMPO 1410/1412 3/4SM -SN BKN006
     FM141400 33015G23KT 6SM -SN SCT009 BKN015
     FM141800 33013G23KT P6SM BKN030
     FM142300 32010KT P6SM SCT045=

USA.gov is the U.S. government's official web portal to all federal, state and local government web resources and services.